Aviation Digital Data Service (ADDS)

Output produced by METARs form (1745 UTC 10 February 2016)
found at http://aviationweather.gov/adds/metars/
 
KSBY 101739Z 1018/1118 30012KT P6SM OVC040 
     FM102200 30010G15KT P6SM SCT050 BKN100 
     FM110500 29010KT P6SM FEW050 
     FM111300 29014KT P6SM SCT250